createdAt,value
2023-02-20T00:01:28.986Z,10.50
2023-02-20T00:03:57.082Z,9.90
2023-02-20T00:06:25.128Z,9.30
2023-02-20T00:08:53.076Z,9.60
2023-02-20T00:11:21.296Z,9.20
2023-02-20T00:13:50.085Z,9.70
2023-02-20T00:16:18.176Z,8.50
2023-02-20T00:18:46.209Z,9.50
2023-02-20T00:21:14.122Z,8.70
2023-02-20T00:23:42.262Z,7.50
2023-02-20T00:26:12.135Z,9.80
2023-02-20T00:28:42.308Z,9.30
2023-02-20T00:31:15.483Z,7.60
2023-02-20T00:33:43.713Z,9.10
2023-02-20T00:36:29.563Z,8.00
2023-02-20T00:38:57.645Z,8.40
2023-02-20T00:41:26.043Z,8.80
2023-02-20T00:43:53.930Z,9.10
2023-02-20T00:46:22.118Z,7.80
2023-02-20T00:48:51.017Z,8.50
2023-02-20T00:51:37.848Z,7.70
2023-02-20T00:54:06.822Z,7.70
2023-02-20T00:56:34.806Z,7.20
2023-02-20T00:59:03.734Z,7.40
2023-02-20T01:01:32.366Z,8.20
2023-02-20T01:04:01.332Z,7.40
2023-02-20T01:06:29.325Z,7.90
2023-02-20T01:08:57.411Z,7.80
2023-02-20T01:11:25.424Z,7.90
2023-02-20T01:13:53.811Z,6.90
2023-02-20T01:16:22.029Z,8.00
2023-02-20T01:18:52.065Z,8.80
2023-02-20T01:21:20.369Z,8.20
2023-02-20T01:23:49.979Z,7.30
2023-02-20T01:26:18.225Z,8.40
2023-02-20T01:28:49.268Z,7.40
2023-02-20T01:31:17.403Z,8.10
2023-02-20T01:33:45.512Z,9.50
2023-02-20T01:36:13.835Z,8.50
2023-02-20T01:38:42.495Z,8.00
2023-02-20T01:41:12.080Z,8.90
2023-02-20T01:43:40.141Z,8.40
2023-02-20T01:46:48.979Z,8.30
2023-02-20T01:49:27.108Z,8.30
2023-02-20T01:52:03.144Z,8.90
2023-02-20T01:54:32.262Z,10.20
2023-02-20T01:57:02.810Z,9.60
2023-02-20T01:59:34.912Z,9.70
2023-02-20T02:02:04.857Z,9.60
2023-02-20T02:04:37.518Z,9.50
2023-02-20T02:07:06.331Z,10.10
2023-02-20T02:09:53.129Z,9.60
2023-02-20T02:12:25.858Z,9.00
2023-02-20T02:14:56.069Z,9.50
2023-02-20T02:17:42.297Z,9.40
2023-02-20T02:20:26.808Z,9.10
2023-02-20T02:23:32.549Z,9.10
2023-02-20T02:26:22.444Z,8.50
2023-02-20T02:29:29.757Z,8.40
2023-02-20T02:32:28.694Z,9.00
2023-02-20T02:35:24.247Z,8.20
2023-02-20T02:37:58.350Z,9.20
2023-02-20T02:40:37.563Z,9.40
2023-02-20T02:43:19.110Z,8.70
2023-02-20T02:46:05.529Z,8.40
2023-02-20T02:51:21.543Z,7.90
2023-02-20T02:54:11.124Z,8.50
2023-02-20T02:56:46.280Z,8.50
2023-02-20T02:59:21.230Z,8.60
2023-02-20T03:02:01.604Z,8.10
2023-02-20T03:04:33.123Z,9.20
2023-02-20T03:07:08.611Z,9.30
2023-02-20T03:09:47.040Z,7.90
2023-02-20T03:12:16.070Z,7.40
2023-02-20T03:15:15.571Z,6.60
2023-02-20T03:17:49.967Z,8.00
2023-02-20T03:20:22.423Z,7.50
2023-02-20T03:23:00.056Z,7.30
2023-02-20T03:25:39.294Z,6.90
2023-02-20T03:28:42.211Z,6.90
2023-02-20T03:31:19.849Z,7.40
2023-02-20T03:34:19.175Z,6.40
2023-02-20T03:37:13.562Z,5.90
2023-02-20T03:40:05.711Z,7.00
2023-02-20T03:42:55.246Z,6.30
2023-02-20T03:45:31.476Z,6.30
2023-02-20T03:48:05.997Z,7.50
2023-02-20T03:50:53.123Z,7.30
2023-02-20T03:53:24.488Z,7.60
2023-02-20T03:55:54.052Z,8.00
2023-02-20T03:58:25.390Z,8.90
2023-02-20T04:00:57.669Z,8.30
2023-02-20T04:03:29.742Z,8.60
2023-02-20T04:06:00.658Z,8.40
2023-02-20T04:08:39.922Z,8.50
2023-02-20T04:11:19.891Z,10.20
2023-02-20T04:13:50.931Z,9.00
2023-02-20T04:16:21.265Z,8.40
2023-02-20T04:18:49.805Z,9.20
2023-02-20T04:21:36.363Z,10.10
2023-02-20T04:24:12.744Z,9.20
2023-02-20T04:26:41.611Z,8.90
2023-02-20T04:29:10.072Z,9.00
2023-02-20T04:31:38.711Z,8.80
2023-02-20T04:34:07.165Z,9.10
2023-02-20T04:36:35.240Z,9.20
2023-02-20T04:39:04.113Z,8.70
2023-02-20T04:41:33.144Z,8.50
2023-02-20T04:44:20.034Z,8.90
2023-02-20T04:46:49.506Z,9.90
2023-02-20T04:49:17.621Z,9.40
2023-02-20T04:51:49.892Z,8.80
2023-02-20T04:54:18.013Z,10.00
2023-02-20T04:56:46.070Z,9.80
2023-02-20T04:59:14.173Z,9.70
2023-02-20T05:01:43.415Z,9.30
2023-02-20T05:04:11.353Z,9.00
2023-02-20T05:06:45.043Z,9.50
2023-02-20T05:09:13.111Z,7.70
2023-02-20T05:11:41.314Z,9.60
2023-02-20T05:14:27.811Z,8.70
2023-02-20T05:16:55.739Z,9.10
2023-02-20T05:19:23.641Z,8.60
2023-02-20T05:22:10.307Z,9.40
2023-02-20T05:24:38.322Z,8.30
2023-02-20T05:27:06.218Z,9.10
2023-02-20T05:29:34.159Z,7.50
2023-02-20T05:32:02.509Z,8.10
2023-02-20T05:34:30.548Z,7.00
2023-02-20T05:36:58.626Z,8.80
2023-02-20T05:39:26.552Z,7.70
2023-02-20T05:41:54.512Z,7.10
2023-02-20T05:44:22.653Z,7.70
2023-02-20T05:46:50.580Z,8.40
2023-02-20T05:49:18.549Z,7.10
2023-02-20T05:51:46.575Z,7.80
2023-02-20T05:54:14.539Z,7.40
2023-02-20T05:56:43.243Z,6.50
2023-02-20T05:59:11.468Z,6.30
2023-02-20T06:01:39.667Z,6.60
2023-02-20T06:04:07.766Z,5.50
2023-02-20T06:06:38.051Z,6.20
2023-02-20T06:09:16.864Z,6.20
2023-02-20T06:11:55.048Z,5.30
2023-02-20T06:14:25.694Z,5.20
2023-02-20T06:16:53.744Z,5.40
2023-02-20T06:19:25.488Z,4.50
2023-02-20T06:21:54.143Z,5.20
2023-02-20T06:24:22.440Z,5.50
2023-02-20T06:26:50.549Z,5.40
2023-02-20T06:29:19.804Z,4.50
2023-02-20T06:31:48.724Z,4.60
2023-02-20T06:34:16.940Z,4.10
2023-02-20T06:36:45.533Z,5.20
2023-02-20T06:39:14.651Z,4.70
2023-02-20T06:41:42.947Z,5.50
2023-02-20T06:44:11.105Z,5.60
2023-02-20T06:46:39.120Z,5.30
2023-02-20T06:49:07.289Z,4.50
2023-02-20T06:51:35.953Z,5.40
2023-02-20T06:54:04.583Z,5.00
2023-02-20T06:56:34.959Z,5.60
2023-02-20T06:59:05.681Z,5.10
2023-02-20T07:01:40.340Z,5.40
2023-02-20T07:04:16.423Z,4.80
2023-02-20T07:06:44.570Z,5.20
2023-02-20T07:09:12.711Z,5.40
2023-02-20T07:11:40.803Z,5.90
2023-02-20T07:14:09.283Z,4.60
2023-02-20T07:16:37.611Z,5.90
2023-02-20T07:19:05.545Z,6.20
2023-02-20T07:21:33.561Z,5.50
2023-02-20T07:24:01.583Z,5.30
2023-02-20T07:26:30.140Z,6.60
2023-02-20T07:28:59.112Z,6.50
2023-02-20T07:31:28.505Z,5.40
2023-02-20T07:33:57.669Z,6.00
2023-02-20T07:36:26.138Z,6.20
2023-02-20T07:38:56.197Z,6.30
2023-02-20T07:41:26.338Z,6.60
2023-02-20T07:43:54.336Z,6.10
2023-02-20T07:46:23.443Z,7.80
2023-02-20T07:48:53.360Z,7.60
2023-02-20T07:51:21.291Z,6.90
2023-02-20T07:53:51.793Z,7.10
2023-02-20T07:56:20.501Z,6.30
2023-02-20T07:58:49.253Z,6.70
2023-02-20T08:01:18.417Z,6.50
2023-02-20T08:03:46.490Z,7.20
2023-02-20T08:06:17.994Z,7.40
2023-02-20T08:08:52.565Z,7.30
2023-02-20T08:11:23.076Z,6.80
2023-02-20T08:13:51.817Z,7.30
2023-02-20T08:16:19.873Z,7.70
2023-02-20T08:18:48.324Z,7.70
2023-02-20T08:21:16.390Z,7.20
2023-02-20T08:23:44.653Z,7.10
2023-02-20T08:26:13.095Z,7.50
2023-02-20T08:28:41.319Z,6.50
2023-02-20T08:31:10.805Z,6.90
2023-02-20T08:33:41.325Z,6.40
2023-02-20T08:36:09.563Z,6.10
2023-02-20T08:38:38.892Z,6.80
2023-02-20T08:41:09.366Z,6.80
2023-02-20T08:43:40.038Z,6.90
2023-02-20T08:46:08.408Z,9.60
2023-02-20T08:48:37.012Z,7.30
2023-02-20T08:51:06.941Z,6.70
2023-02-20T08:53:35.456Z,6.80
2023-02-20T08:56:04.813Z,8.30
2023-02-20T08:58:33.194Z,7.20
2023-02-20T09:01:01.352Z,7.10
2023-02-20T09:03:29.511Z,7.50
2023-02-20T09:05:57.538Z,7.70
2023-02-20T09:08:25.442Z,7.90
2023-02-20T09:10:53.626Z,7.70
2023-02-20T09:13:21.622Z,7.60
2023-02-20T09:15:49.731Z,8.20
2023-02-20T09:18:18.047Z,8.00
2023-02-20T09:20:45.973Z,7.90
2023-02-20T09:23:14.851Z,8.80
2023-02-20T09:25:42.802Z,8.70
2023-02-20T09:28:10.712Z,8.30
2023-02-20T09:30:38.739Z,7.70
2023-02-20T09:33:06.926Z,7.80
2023-02-20T09:35:34.909Z,7.20
2023-02-20T09:38:02.943Z,7.30
2023-02-20T09:40:32.712Z,6.90
2023-02-20T09:43:13.599Z,6.90
2023-02-20T09:45:47.720Z,6.80
2023-02-20T09:48:41.300Z,7.90
2023-02-20T09:51:15.872Z,7.60
2023-02-20T09:54:11.229Z,6.60
2023-02-20T09:56:42.438Z,7.30
2023-02-20T09:59:16.824Z,6.70
2023-02-20T10:05:49.514Z,6.90
2023-02-20T10:08:21.289Z,6.70
2023-02-20T10:10:51.198Z,6.70
2023-02-20T10:13:22.091Z,6.50
2023-02-20T10:15:54.115Z,7.60
2023-02-20T10:18:54.152Z,6.30
2023-02-20T10:21:49.360Z,5.70
2023-02-20T10:24:32.626Z,5.80
2023-02-20T10:27:16.950Z,5.80
2023-02-20T10:29:46.864Z,6.00
2023-02-20T10:32:24.440Z,5.90
2023-02-20T10:35:08.054Z,5.90
2023-02-20T10:37:47.532Z,4.90
2023-02-20T10:40:31.765Z,4.90
2023-02-20T10:43:10.338Z,5.40
2023-02-20T10:45:41.248Z,5.60
2023-02-20T10:48:15.277Z,5.20
2023-02-20T10:50:52.920Z,5.00
2023-02-20T10:53:45.405Z,4.90
2023-02-20T10:56:38.732Z,5.00
2023-02-20T10:59:18.129Z,4.60
2023-02-20T11:01:52.056Z,5.20
2023-02-20T11:04:22.074Z,4.60
2023-02-20T11:06:57.353Z,5.00
2023-02-20T11:09:25.670Z,5.10
2023-02-20T11:11:55.473Z,4.60
2023-02-20T11:28:26.102Z,4.00
2023-02-20T11:33:48.106Z,3.50
2023-02-20T11:36:25.579Z,3.90
2023-02-20T11:39:03.370Z,3.50
2023-02-20T11:41:34.299Z,3.40
2023-02-20T11:44:14.991Z,3.90
2023-02-20T11:46:44.187Z,4.00
2023-02-20T11:49:25.272Z,4.30
2023-02-20T11:52:06.414Z,4.50
2023-02-20T11:54:34.532Z,4.40
2023-02-20T11:57:24.440Z,4.20
2023-02-20T12:00:20.668Z,4.30
2023-02-20T12:03:08.005Z,3.60
2023-02-20T12:05:47.563Z,4.40
2023-02-20T12:08:37.364Z,5.30
2023-02-20T12:11:16.102Z,5.00
2023-02-20T12:17:27.234Z,5.70
2023-02-20T12:20:08.008Z,5.50
2023-02-20T12:22:46.134Z,5.30
2023-02-20T12:25:32.263Z,5.40
2023-02-20T12:28:24.692Z,7.20
2023-02-20T12:31:10.717Z,6.60
2023-02-20T12:33:51.357Z,5.40
2023-02-20T12:36:28.509Z,5.20
2023-02-20T12:38:59.825Z,6.10
2023-02-20T12:41:45.889Z,5.80
2023-02-20T12:44:16.500Z,7.00
2023-02-20T12:47:15.628Z,5.60
2023-02-20T12:50:18.322Z,7.60
2023-02-20T12:53:11.408Z,6.00
2023-02-20T12:55:47.222Z,6.70
2023-02-20T12:58:28.916Z,7.50
2023-02-20T13:01:02.821Z,7.60
2023-02-20T13:03:41.413Z,7.60
2023-02-20T13:06:12.052Z,7.50
2023-02-20T13:09:06.200Z,6.70
2023-02-20T13:11:41.913Z,6.90
2023-02-20T13:14:15.855Z,7.20
2023-02-20T13:17:11.824Z,7.20
2023-02-20T13:19:45.869Z,7.40
2023-02-20T13:22:16.609Z,7.00
2023-02-20T13:24:44.533Z,7.30
2023-02-20T13:27:29.863Z,7.10
2023-02-20T13:29:59.327Z,6.30
2023-02-20T13:32:31.372Z,7.30
2023-02-20T13:35:34.886Z,6.90
2023-02-20T13:38:14.680Z,7.50
2023-02-20T13:40:55.402Z,6.80
2023-02-20T13:43:23.406Z,6.60
2023-02-20T13:46:15.137Z,6.50
2023-02-20T13:48:46.213Z,6.20
2023-02-20T13:51:21.589Z,7.80
2023-02-20T13:54:11.567Z,7.60
2023-02-20T13:56:39.440Z,7.10
2023-02-20T13:59:18.458Z,6.30
2023-02-20T14:02:15.983Z,7.50
2023-02-20T14:05:00.456Z,7.30
2023-02-20T14:07:40.632Z,7.10
2023-02-20T14:10:31.711Z,6.80
2023-02-20T14:13:05.076Z,7.20
2023-02-20T14:15:43.017Z,6.20
2023-02-20T14:18:17.938Z,6.50
2023-02-20T14:20:46.644Z,7.00
2023-02-20T14:23:19.951Z,6.50
2023-02-20T14:26:01.315Z,6.40
2023-02-20T14:28:33.288Z,5.90
2023-02-20T14:31:21.156Z,7.10
2023-02-20T14:33:52.161Z,6.10
2023-02-20T14:36:38.376Z,6.00
2023-02-20T14:39:18.522Z,6.40
2023-02-20T14:42:11.448Z,6.30
2023-02-20T14:44:40.194Z,6.40
2023-02-20T14:47:16.060Z,6.50
2023-02-20T14:49:45.007Z,6.40
2023-02-20T14:52:15.337Z,6.80
2023-02-20T14:54:45.137Z,6.80
2023-02-20T14:57:15.410Z,6.10
2023-02-20T14:59:43.555Z,6.50
2023-02-20T15:02:32.753Z,6.90
2023-02-20T15:05:09.310Z,6.90
2023-02-20T15:07:39.893Z,6.20
2023-02-20T15:10:38.869Z,6.90
2023-02-20T15:13:13.396Z,6.00
2023-02-20T15:15:46.084Z,6.60
2023-02-20T15:18:17.782Z,5.80
2023-02-20T15:20:51.125Z,5.90
2023-02-20T15:23:49.333Z,6.30
2023-02-20T15:26:28.118Z,6.40
2023-02-20T15:29:24.152Z,5.60
2023-02-20T15:32:14.121Z,6.10
2023-02-20T15:34:42.506Z,6.40
2023-02-20T15:37:38.373Z,6.60
2023-02-20T15:40:25.164Z,6.20
2023-02-20T15:42:57.342Z,7.60
2023-02-20T15:45:28.724Z,5.90
2023-02-20T15:47:58.638Z,7.90
2023-02-20T15:50:27.542Z,6.50
2023-02-20T15:52:58.682Z,6.20
2023-02-20T15:55:28.253Z,5.90
2023-02-20T15:57:59.125Z,5.70
2023-02-20T16:00:33.002Z,5.50
2023-02-20T16:03:01.881Z,6.10
2023-02-20T16:05:30.198Z,5.80
2023-02-20T16:07:58.243Z,5.70
2023-02-20T16:10:26.307Z,6.00
2023-02-20T16:12:57.178Z,6.00
2023-02-20T16:15:26.506Z,5.60
2023-02-20T16:17:55.585Z,5.70
2023-02-20T16:20:28.026Z,5.70
2023-02-20T16:22:56.559Z,6.40
2023-02-20T16:25:24.881Z,6.50
2023-02-20T16:27:56.376Z,6.60
2023-02-20T16:30:33.823Z,7.40
2023-02-20T16:33:08.850Z,7.20
2023-02-20T16:35:36.927Z,6.30
2023-02-20T16:38:05.372Z,5.90
2023-02-20T16:40:36.388Z,6.80
2023-02-20T16:43:06.197Z,6.50
2023-02-20T16:45:36.925Z,6.90
2023-02-20T16:48:13.747Z,6.30
2023-02-20T16:50:41.848Z,7.60
2023-02-20T16:53:13.044Z,7.70
2023-02-20T16:55:47.193Z,7.30
2023-02-20T16:58:15.538Z,6.80
2023-02-20T17:00:56.668Z,7.30
2023-02-20T17:03:27.991Z,7.70
2023-02-20T17:06:00.200Z,7.30
2023-02-20T17:08:30.814Z,7.10
2023-02-20T17:11:01.458Z,6.90
2023-02-20T17:13:29.852Z,6.30
2023-02-20T17:18:50.233Z,6.80
2023-02-20T17:21:18.641Z,6.40
2023-02-20T17:23:47.036Z,6.10
2023-02-20T17:26:15.773Z,6.70
2023-02-20T17:28:43.996Z,6.20
2023-02-20T17:31:14.094Z,6.10
2023-02-20T17:33:42.539Z,6.10
2023-02-20T17:36:12.393Z,5.90
2023-02-20T17:38:43.446Z,6.10
2023-02-20T17:41:12.401Z,5.60
2023-02-20T17:43:40.951Z,6.00
2023-02-20T17:46:08.977Z,5.90
2023-02-20T17:48:37.005Z,6.00
2023-02-20T17:51:05.175Z,5.70
2023-02-20T17:53:33.357Z,6.90
2023-02-20T17:56:01.481Z,5.70
2023-02-20T17:58:29.575Z,6.00
2023-02-20T18:00:57.590Z,6.40
2023-02-20T18:03:26.237Z,5.40
2023-02-20T18:05:55.349Z,5.70
2023-02-20T18:08:23.454Z,5.70
2023-02-20T18:10:51.444Z,5.80
2023-02-20T18:13:19.481Z,5.50
2023-02-20T18:15:47.660Z,5.60
2023-02-20T18:18:16.017Z,5.30
2023-02-20T18:20:44.519Z,6.20
2023-02-20T18:23:12.510Z,5.70
2023-02-20T18:25:41.334Z,5.60
2023-02-20T18:28:10.762Z,6.00
2023-02-20T18:30:39.553Z,5.80
2023-02-20T18:33:07.990Z,5.80
2023-02-20T18:35:36.151Z,5.80
2023-02-20T18:38:04.314Z,5.50
2023-02-20T18:40:33.605Z,5.60
2023-02-20T18:43:01.636Z,5.50
2023-02-20T18:45:29.811Z,5.90
2023-02-20T18:47:57.901Z,4.90
2023-02-20T18:50:26.112Z,5.00
2023-02-20T18:52:54.049Z,5.00
2023-02-20T18:55:23.308Z,6.00
2023-02-20T18:57:52.165Z,5.40
2023-02-20T19:00:23.068Z,5.10
2023-02-20T19:02:53.212Z,5.50
2023-02-20T19:05:22.041Z,5.90
2023-02-20T19:07:50.408Z,5.50
2023-02-20T19:10:26.649Z,5.90
2023-02-20T19:12:55.491Z,5.60
2023-02-20T19:15:25.058Z,6.60
2023-02-20T19:17:54.807Z,6.60
2023-02-20T19:20:28.791Z,5.40
2023-02-20T19:22:59.152Z,5.30
2023-02-20T19:25:27.351Z,5.30
2023-02-20T19:27:55.882Z,5.10
2023-02-20T19:30:24.701Z,5.30
2023-02-20T19:32:52.780Z,5.60
2023-02-20T19:35:21.298Z,5.30
2023-02-20T19:37:49.361Z,5.10
2023-02-20T19:40:17.482Z,4.80
2023-02-20T19:42:45.561Z,5.30
2023-02-20T19:45:13.526Z,4.70
2023-02-20T19:47:41.606Z,5.10
2023-02-20T19:50:10.426Z,5.70
2023-02-20T19:52:41.750Z,4.70
2023-02-20T19:55:17.104Z,4.90
2023-02-20T19:57:45.198Z,4.30
2023-02-20T20:00:18.163Z,4.30
2023-02-20T20:02:54.736Z,4.90
2023-02-20T20:05:22.785Z,4.70
2023-02-20T20:07:51.423Z,5.10
2023-02-20T20:10:21.575Z,4.80
2023-02-20T20:12:49.676Z,4.40
2023-02-20T20:15:23.396Z,4.20
2023-02-20T20:17:54.636Z,5.00
2023-02-20T20:20:24.420Z,4.60
2023-02-20T20:22:55.147Z,4.20
2023-02-20T20:25:24.467Z,3.80
2023-02-20T20:27:54.268Z,3.80
2023-02-20T20:30:28.093Z,3.60
2023-02-20T20:32:57.380Z,4.90
2023-02-20T20:35:27.889Z,5.10
2023-02-20T20:37:56.887Z,5.10
2023-02-20T20:40:26.674Z,4.90
2023-02-20T20:42:59.258Z,4.60
2023-02-20T20:45:27.495Z,5.20
2023-02-20T20:47:55.643Z,4.70
2023-02-20T20:50:27.841Z,4.20
2023-02-20T20:53:01.513Z,4.10
2023-02-20T20:55:30.127Z,4.50
2023-02-20T20:57:59.912Z,4.90
2023-02-20T21:00:35.947Z,4.90
2023-02-20T21:03:10.753Z,4.90
2023-02-20T21:05:38.980Z,5.50
2023-02-20T21:08:07.976Z,6.00
2023-02-20T21:10:37.442Z,5.60
2023-02-20T21:13:05.564Z,6.30
2023-02-20T21:15:35.376Z,5.40
2023-02-20T21:18:04.079Z,5.20
2023-02-20T21:20:35.322Z,4.70
2023-02-20T21:23:04.942Z,5.70
2023-02-20T21:25:32.892Z,6.00
2023-02-20T21:28:00.860Z,5.40
2023-02-20T21:30:28.858Z,5.80
2023-02-20T21:32:57.105Z,5.60
2023-02-20T21:35:26.325Z,5.50
2023-02-20T21:37:54.428Z,4.80
2023-02-20T21:40:22.410Z,5.30
2023-02-20T21:43:09.312Z,5.00
2023-02-20T21:45:38.044Z,6.50
2023-02-20T21:48:06.406Z,5.10
2023-02-20T21:50:34.517Z,4.70
2023-02-20T21:53:03.088Z,5.00
2023-02-20T21:55:31.309Z,4.60
2023-02-20T21:57:59.279Z,3.80
2023-02-20T22:00:27.386Z,3.50
2023-02-20T22:02:55.353Z,3.00
2023-02-20T22:05:23.505Z,3.40
2023-02-20T22:08:10.272Z,3.00
2023-02-20T22:10:57.175Z,3.20
2023-02-20T22:13:44.823Z,3.70
2023-02-20T22:16:37.106Z,3.40
2023-02-20T22:19:24.255Z,3.20
2023-02-20T22:22:10.808Z,3.20
2023-02-20T22:24:57.538Z,3.20
2023-02-20T22:30:30.819Z,2.90
2023-02-20T22:33:17.299Z,2.90
2023-02-20T22:38:51.477Z,2.80
2023-02-20T22:41:42.268Z,2.50
2023-02-20T22:44:28.817Z,2.90
2023-02-20T22:50:16.270Z,3.30
2023-02-20T22:53:03.052Z,2.60
2023-02-20T22:55:50.410Z,2.60
2023-02-20T22:58:37.781Z,2.10
2023-02-20T23:01:27.173Z,1.80
2023-02-20T23:04:14.081Z,1.70
2023-02-20T23:09:47.568Z,2.70
2023-02-20T23:15:20.864Z,2.60
2023-02-20T23:18:07.671Z,2.20
2023-02-20T23:20:54.358Z,2.10
2023-02-20T23:23:41.009Z,2.30
2023-02-20T23:26:30.929Z,2.00
2023-02-20T23:29:17.625Z,2.50
2023-02-20T23:32:04.221Z,2.30
2023-02-20T23:34:50.935Z,2.40
2023-02-20T23:40:36.050Z,2.00
2023-02-20T23:43:25.376Z,2.00
2023-02-20T23:46:13.004Z,2.10
2023-02-20T23:48:59.528Z,2.00
2023-02-20T23:54:32.724Z,2.80
2023-02-20T23:57:19.402Z,2.30
